sensor_id;sensor_type;location;lat;lon;timestamp;P1;durP1;ratioP1;P2;durP2;ratioP2
71116;SDS011;58775;46.992;9.518;2024-03-23T00:55:41;5.18;;;1.00;;
71116;SDS011;58775;46.992;9.518;2024-03-23T00:57:42;5.13;;;0.90;;
71116;SDS011;58775;46.992;9.518;2024-03-23T00:59:43;3.13;;;0.85;;
71116;SDS011;58775;46.992;9.518;2024-03-23T01:01:44;2.95;;;0.82;;
71116;SDS011;58775;46.992;9.518;2024-03-23T01:03:45;3.53;;;0.90;;
71116;SDS011;58775;46.992;9.518;2024-03-23T01:05:46;6.20;;;0.90;;
71116;SDS011;58775;46.992;9.518;2024-03-23T01:07:46;6.60;;;1.00;;
71116;SDS011;58775;46.992;9.518;2024-03-23T01:09:47;5.32;;;0.80;;
71116;SDS011;58775;46.992;9.518;2024-03-23T01:11:48;2.60;;;0.67;;
71116;SDS011;58775;46.992;9.518;2024-03-23T01:13:48;4.78;;;0.93;;
71116;SDS011;58775;46.992;9.518;2024-03-23T01:15:49;2.77;;;0.83;;
71116;SDS011;58775;46.992;9.518;2024-03-23T01:17:52;3.33;;;1.00;;
71116;SDS011;58775;46.992;9.518;2024-03-23T01:19:52;6.60;;;1.00;;
71116;SDS011;58775;46.992;9.518;2024-03-23T01:21:53;4.87;;;0.97;;
71116;SDS011;58775;46.992;9.518;2024-03-23T01:23:54;3.58;;;0.80;;
71116;SDS011;58775;46.992;9.518;2024-03-23T01:25:54;4.17;;;0.83;;
71116;SDS011;58775;46.992;9.518;2024-03-23T01:27:55;4.55;;;0.90;;
71116;SDS011;58775;46.992;9.518;2024-03-23T01:29:56;3.03;;;0.83;;
71116;SDS011;58775;46.992;9.518;2024-03-23T01:31:57;2.17;;;0.65;;
71116;SDS011;58775;46.992;9.518;2024-03-23T01:33:58;3.88;;;0.80;;
71116;SDS011;58775;46.992;9.518;2024-03-23T01:35:59;3.13;;;0.60;;
71116;SDS011;58775;46.992;9.518;2024-03-23T01:37:59;2.60;;;0.80;;
71116;SDS011;58775;46.992;9.518;2024-03-23T01:40:00;4.60;;;0.77;;
71116;SDS011;58775;46.992;9.518;2024-03-23T01:42:01;2.03;;;0.68;;
71116;SDS011;58775;46.992;9.518;2024-03-23T01:44:04;2.72;;;0.75;;
71116;SDS011;58775;46.992;9.518;2024-03-23T01:46:09;3.53;;;0.90;;
71116;SDS011;58775;46.992;9.518;2024-03-23T01:48:10;5.00;;;0.90;;
71116;SDS011;58775;46.992;9.518;2024-03-23T01:50:13;2.28;;;0.80;;
71116;SDS011;58775;46.992;9.518;2024-03-23T01:52:14;2.88;;;0.60;;
71116;SDS011;58775;46.992;9.518;2024-03-23T01:54:15;6.20;;;1.07;;
71116;SDS011;58775;46.992;9.518;2024-03-23T01:56:16;2.53;;;0.70;;
71116;SDS011;58775;46.992;9.518;2024-03-23T01:58:16;4.53;;;0.90;;
71116;SDS011;58775;46.992;9.518;2024-03-23T02:00:17;4.00;;;0.82;;
71116;SDS011;58775;46.992;9.518;2024-03-23T02:02:18;3.85;;;0.90;;
71116;SDS011;58775;46.992;9.518;2024-03-23T02:04:20;3.93;;;1.20;;
71116;SDS011;58775;46.992;9.518;2024-03-23T02:06:20;3.42;;;0.95;;
71116;SDS011;58775;46.992;9.518;2024-03-23T02:08:22;3.40;;;0.80;;
71116;SDS011;58775;46.992;9.518;2024-03-23T02:10:24;3.28;;;0.63;;
71116;SDS011;58775;46.992;9.518;2024-03-23T02:12:24;2.72;;;0.80;;
71116;SDS011;58775;46.992;9.518;2024-03-23T02:14:25;6.28;;;1.42;;
71116;SDS011;58775;46.992;9.518;2024-03-23T02:16:26;2.93;;;0.83;;
71116;SDS011;58775;46.992;9.518;2024-03-23T02:18:27;3.55;;;0.93;;
71116;SDS011;58775;46.992;9.518;2024-03-23T02:20:27;4.23;;;0.80;;
71116;SDS011;58775;46.992;9.518;2024-03-23T02:22:37;4.45;;;1.10;;
71116;SDS011;58775;46.992;9.518;2024-03-23T02:24:38;2.37;;;0.80;;
71116;SDS011;58775;46.992;9.518;2024-03-23T02:26:39;2.50;;;0.60;;
71116;SDS011;58775;46.992;9.518;2024-03-23T02:28:40;3.70;;;1.00;;
71116;SDS011;58775;46.992;9.518;2024-03-23T02:30:41;5.72;;;0.93;;
71116;SDS011;58775;46.992;9.518;2024-03-23T02:32:42;2.60;;;0.77;;
71116;SDS011;58775;46.992;9.518;2024-03-23T02:34:42;3.37;;;0.80;;
71116;SDS011;58775;46.992;9.518;2024-03-23T02:36:43;6.95;;;1.10;;
71116;SDS011;58775;46.992;9.518;2024-03-23T02:38:44;3.13;;;1.00;;
71116;SDS011;58775;46.992;9.518;2024-03-23T02:40:45;4.10;;;0.80;;
71116;SDS011;58775;46.992;9.518;2024-03-23T02:42:46;4.15;;;0.60;;
71116;SDS011;58775;46.992;9.518;2024-03-23T02:44:46;4.07;;;0.73;;
71116;SDS011;58775;46.992;9.518;2024-03-23T02:46:47;3.67;;;1.00;;
71116;SDS011;58775;46.992;9.518;2024-03-23T02:48:48;2.90;;;0.80;;
71116;SDS011;58775;46.992;9.518;2024-03-23T02:50:49;2.83;;;0.80;;
71116;SDS011;58775;46.992;9.518;2024-03-23T02:52:50;4.28;;;0.70;;
71116;SDS011;58775;46.992;9.518;2024-03-23T02:54:51;3.50;;;0.77;;
71116;SDS011;58775;46.992;9.518;2024-03-23T02:56:52;2.97;;;0.90;;
71116;SDS011;58775;46.992;9.518;2024-03-23T02:58:53;4.13;;;0.80;;
71116;SDS011;58775;46.992;9.518;2024-03-23T03:00:53;6.43;;;1.00;;
71116;SDS011;58775;46.992;9.518;2024-03-23T03:02:54;5.20;;;1.17;;
71116;SDS011;58775;46.992;9.518;2024-03-23T03:04:55;4.40;;;1.20;;
71116;SDS011;58775;46.992;9.518;2024-03-23T03:06:56;3.28;;;0.90;;
71116;SDS011;58775;46.992;9.518;2024-03-23T03:08:57;6.90;;;1.20;;
71116;SDS011;58775;46.992;9.518;2024-03-23T03:10:58;5.60;;;1.60;;
71116;SDS011;58775;46.992;9.518;2024-03-23T03:12:59;4.63;;;0.87;;
71116;SDS011;58775;46.992;9.518;2024-03-23T03:14:59;3.38;;;0.90;;
71116;SDS011;58775;46.992;9.518;2024-03-23T03:17:00;3.60;;;0.90;;
71116;SDS011;58775;46.992;9.518;2024-03-23T03:19:01;3.65;;;1.00;;
71116;SDS011;58775;46.992;9.518;2024-03-23T03:21:02;4.63;;;0.93;;
71116;SDS011;58775;46.992;9.518;2024-03-23T03:23:03;3.17;;;0.77;;
71116;SDS011;58775;46.992;9.518;2024-03-23T03:25:05;2.83;;;0.73;;
71116;SDS011;58775;46.992;9.518;2024-03-23T03:27:07;3.33;;;0.98;;
71116;SDS011;58775;46.992;9.518;2024-03-23T03:29:08;4.55;;;1.00;;
71116;SDS011;58775;46.992;9.518;2024-03-23T03:31:09;3.53;;;0.95;;
71116;SDS011;58775;46.992;9.518;2024-03-23T03:33:10;2.72;;;0.90;;
71116;SDS011;58775;46.992;9.518;2024-03-23T03:35:11;3.35;;;1.00;;
71116;SDS011;58775;46.992;9.518;2024-03-23T03:37:12;4.10;;;0.73;;
71116;SDS011;58775;46.992;9.518;2024-03-23T03:39:12;2.85;;;0.77;;
71116;SDS011;58775;46.992;9.518;2024-03-23T03:41:13;4.53;;;0.63;;
71116;SDS011;58775;46.992;9.518;2024-03-23T03:43:14;8.20;;;1.02;;
71116;SDS011;58775;46.992;9.518;2024-03-23T03:45:15;3.00;;;0.77;;
71116;SDS011;58775;46.992;9.518;2024-03-23T03:47:16;4.27;;;0.90;;
71116;SDS011;58775;46.992;9.518;2024-03-23T03:49:17;2.03;;;0.65;;
71116;SDS011;58775;46.992;9.518;2024-03-23T03:51:18;2.22;;;0.60;;
71116;SDS011;58775;46.992;9.518;2024-03-23T03:53:19;3.37;;;0.90;;
71116;SDS011;58775;46.992;9.518;2024-03-23T03:55:20;2.95;;;0.80;;
71116;SDS011;58775;46.992;9.518;2024-03-23T03:57:20;2.43;;;0.70;;
71116;SDS011;58775;46.992;9.518;2024-03-23T03:59:21;3.97;;;0.90;;
71116;SDS011;58775;46.992;9.518;2024-03-23T04:01:22;3.90;;;1.17;;
71116;SDS011;58775;46.992;9.518;2024-03-23T04:03:22;2.90;;;0.90;;
71116;SDS011;58775;46.992;9.518;2024-03-23T04:05:23;2.33;;;0.73;;
71116;SDS011;58775;46.992;9.518;2024-03-23T04:07:24;4.30;;;0.90;;
71116;SDS011;58775;46.992;9.518;2024-03-23T04:09:25;3.33;;;0.87;;
71116;SDS011;58775;46.992;9.518;2024-03-23T04:11:25;4.72;;;1.02;;
71116;SDS011;58775;46.992;9.518;2024-03-23T04:13:26;4.50;;;0.90;;
71116;SDS011;58775;46.992;9.518;2024-03-23T04:15:27;4.03;;;0.90;;
71116;SDS011;58775;46.992;9.518;2024-03-23T04:17:28;3.28;;;0.88;;
71116;SDS011;58775;46.992;9.518;2024-03-23T04:19:32;3.45;;;0.95;;
71116;SDS011;58775;46.992;9.518;2024-03-23T04:21:32;2.67;;;0.80;;
71116;SDS011;58775;46.992;9.518;2024-03-23T04:23:34;4.32;;;0.70;;
71116;SDS011;58775;46.992;9.518;2024-03-23T04:25:35;3.10;;;0.70;;
71116;SDS011;58775;46.992;9.518;2024-03-23T04:27:36;2.13;;;0.60;;
71116;SDS011;58775;46.992;9.518;2024-03-23T04:29:37;4.05;;;0.93;;
71116;SDS011;58775;46.992;9.518;2024-03-23T04:31:38;2.60;;;0.77;;
71116;SDS011;58775;46.992;9.518;2024-03-23T04:33:39;5.07;;;0.82;;
71116;SDS011;58775;46.992;9.518;2024-03-23T04:35:39;4.90;;;1.13;;
71116;SDS011;58775;46.992;9.518;2024-03-23T04:37:40;3.13;;;0.88;;
71116;SDS011;58775;46.992;9.518;2024-03-23T04:39:41;3.13;;;0.80;;
71116;SDS011;58775;46.992;9.518;2024-03-23T04:41:42;3.58;;;0.70;;
71116;SDS011;58775;46.992;9.518;2024-03-23T04:43:43;2.13;;;0.70;;
71116;SDS011;58775;46.992;9.518;2024-03-23T04:45:44;3.75;;;0.85;;
71116;SDS011;58775;46.992;9.518;2024-03-23T04:47:45;2.53;;;0.77;;
71116;SDS011;58775;46.992;9.518;2024-03-23T04:49:46;2.92;;;0.70;;
71116;SDS011;58775;46.992;9.518;2024-03-23T04:51:46;4.20;;;1.20;;
71116;SDS011;58775;46.992;9.518;2024-03-23T04:53:47;4.03;;;0.97;;
71116;SDS011;58775;46.992;9.518;2024-03-23T04:55:48;3.75;;;0.98;;
71116;SDS011;58775;46.992;9.518;2024-03-23T04:57:49;5.67;;;1.03;;
71116;SDS011;58775;46.992;9.518;2024-03-23T04:59:49;4.43;;;1.10;;
71116;SDS011;58775;46.992;9.518;2024-03-23T05:01:50;2.37;;;0.90;;
71116;SDS011;58775;46.992;9.518;2024-03-23T05:03:51;3.45;;;1.05;;
71116;SDS011;58775;46.992;9.518;2024-03-23T05:05:53;3.00;;;0.80;;
71116;SDS011;58775;46.992;9.518;2024-03-23T05:07:53;2.07;;;0.60;;
71116;SDS011;58775;46.992;9.518;2024-03-23T05:09:54;3.65;;;0.73;;
71116;SDS011;58775;46.992;9.518;2024-03-23T05:11:56;6.20;;;0.97;;
71116;SDS011;58775;46.992;9.518;2024-03-23T05:13:57;5.38;;;1.00;;
71116;SDS011;58775;46.992;9.518;2024-03-23T05:15:58;3.42;;;1.05;;
71116;SDS011;58775;46.992;9.518;2024-03-23T05:17:59;3.50;;;0.95;;
71116;SDS011;58775;46.992;9.518;2024-03-23T05:20:00;3.53;;;0.90;;
71116;SDS011;58775;46.992;9.518;2024-03-23T05:22:01;3.72;;;0.90;;
71116;SDS011;58775;46.992;9.518;2024-03-23T05:24:02;3.92;;;0.73;;
71116;SDS011;58775;46.992;9.518;2024-03-23T05:26:03;2.85;;;0.80;;
71116;SDS011;58775;46.992;9.518;2024-03-23T05:28:05;4.57;;;1.17;;
71116;SDS011;58775;46.992;9.518;2024-03-23T05:30:07;5.93;;;1.10;;
71116;SDS011;58775;46.992;9.518;2024-03-23T05:32:09;3.50;;;0.88;;
71116;SDS011;58775;46.992;9.518;2024-03-23T05:34:10;6.10;;;1.10;;
71116;SDS011;58775;46.992;9.518;2024-03-23T05:36:10;3.95;;;1.08;;
71116;SDS011;58775;46.992;9.518;2024-03-23T05:38:12;3.80;;;0.85;;
71116;SDS011;58775;46.992;9.518;2024-03-23T05:40:14;4.40;;;1.00;;
71116;SDS011;58775;46.992;9.518;2024-03-23T05:42:16;4.47;;;1.10;;
71116;SDS011;58775;46.992;9.518;2024-03-23T05:44:17;4.30;;;0.80;;
71116;SDS011;58775;46.992;9.518;2024-03-23T05:46:18;2.50;;;0.70;;
71116;SDS011;58775;46.992;9.518;2024-03-23T05:48:19;4.47;;;0.90;;
71116;SDS011;58775;46.992;9.518;2024-03-23T05:50:20;6.43;;;1.30;;
71116;SDS011;58775;46.992;9.518;2024-03-23T05:52:21;8.10;;;1.20;;
71116;SDS011;58775;46.992;9.518;2024-03-23T05:54:21;3.10;;;0.80;;
71116;SDS011;58775;46.992;9.518;2024-03-23T05:56:22;2.10;;;0.70;;
71116;SDS011;58775;46.992;9.518;2024-03-23T05:58:23;5.45;;;0.95;;
71116;SDS011;58775;46.992;9.518;2024-03-23T06:00:24;3.78;;;1.00;;
71116;SDS011;58775;46.992;9.518;2024-03-23T06:02:26;3.47;;;1.00;;
71116;SDS011;58775;46.992;9.518;2024-03-23T06:04:27;3.53;;;0.90;;
71116;SDS011;58775;46.992;9.518;2024-03-23T06:06:30;2.72;;;0.90;;
71116;SDS011;58775;46.992;9.518;2024-03-23T06:08:31;2.33;;;0.70;;
71116;SDS011;58775;46.992;9.518;2024-03-23T06:10:32;4.37;;;0.87;;
71116;SDS011;58775;46.992;9.518;2024-03-23T06:12:33;4.20;;;0.82;;
71116;SDS011;58775;46.992;9.518;2024-03-23T06:14:34;8.83;;;1.00;;
71116;SDS011;58775;46.992;9.518;2024-03-23T06:16:35;5.15;;;1.20;;
71116;SDS011;58775;46.992;9.518;2024-03-23T06:18:36;3.00;;;0.90;;
71116;SDS011;58775;46.992;9.518;2024-03-23T06:20:36;5.47;;;1.00;;
71116;SDS011;58775;46.992;9.518;2024-03-23T06:22:37;3.47;;;0.90;;
71116;SDS011;58775;46.992;9.518;2024-03-23T06:24:38;4.30;;;1.10;;
71116;SDS011;58775;46.992;9.518;2024-03-23T06:26:39;2.97;;;0.70;;
71116;SDS011;58775;46.992;9.518;2024-03-23T06:28:39;3.13;;;0.90;;
71116;SDS011;58775;46.992;9.518;2024-03-23T06:30:40;4.20;;;1.02;;
71116;SDS011;58775;46.992;9.518;2024-03-23T06:32:41;2.97;;;0.90;;
71116;SDS011;58775;46.992;9.518;2024-03-23T06:34:41;4.70;;;1.00;;
71116;SDS011;58775;46.992;9.518;2024-03-23T06:36:42;4.40;;;0.60;;
71116;SDS011;58775;46.992;9.518;2024-03-23T06:38:44;3.95;;;1.08;;
71116;SDS011;58775;46.992;9.518;2024-03-23T06:40:45;3.67;;;1.15;;
71116;SDS011;58775;46.992;9.518;2024-03-23T06:42:47;2.58;;;0.88;;
71116;SDS011;58775;46.992;9.518;2024-03-23T06:44:48;2.42;;;0.70;;
71116;SDS011;58775;46.992;9.518;2024-03-23T06:46:49;3.33;;;1.00;;
71116;SDS011;58775;46.992;9.518;2024-03-23T06:48:50;3.63;;;1.08;;
71116;SDS011;58775;46.992;9.518;2024-03-23T06:50:55;4.22;;;1.13;;
71116;SDS011;58775;46.992;9.518;2024-03-23T06:52:59;2.40;;;0.83;;
71116;SDS011;58775;46.992;9.518;2024-03-23T06:55:02;3.95;;;1.10;;
71116;SDS011;58775;46.992;9.518;2024-03-23T06:57:04;4.78;;;1.00;;
71116;SDS011;58775;46.992;9.518;2024-03-23T06:59:05;3.88;;;1.10;;
71116;SDS011;58775;46.992;9.518;2024-03-23T07:01:07;4.05;;;1.00;;
71116;SDS011;58775;46.992;9.518;2024-03-23T07:03:07;5.93;;;1.20;;
71116;SDS011;58775;46.992;9.518;2024-03-23T07:05:08;4.35;;;1.27;;
71116;SDS011;58775;46.992;9.518;2024-03-23T07:07:09;4.50;;;1.03;;
71116;SDS011;58775;46.992;9.518;2024-03-23T07:09:10;4.50;;;1.08;;
71116;SDS011;58775;46.992;9.518;2024-03-23T07:11:10;5.37;;;1.00;;
71116;SDS011;58775;46.992;9.518;2024-03-23T07:13:11;3.10;;;0.90;;
71116;SDS011;58775;46.992;9.518;2024-03-23T07:15:12;5.67;;;1.17;;
71116;SDS011;58775;46.992;9.518;2024-03-23T07:17:13;4.43;;;1.10;;
71116;SDS011;58775;46.992;9.518;2024-03-23T07:19:13;2.92;;;1.10;;
71116;SDS011;58775;46.992;9.518;2024-03-23T07:21:16;5.18;;;1.27;;
71116;SDS011;58775;46.992;9.518;2024-03-23T07:23:17;2.80;;;1.00;;
71116;SDS011;58775;46.992;9.518;2024-03-23T07:25:18;3.30;;;0.90;;
71116;SDS011;58775;46.992;9.518;2024-03-23T07:27:19;4.40;;;1.13;;
71116;SDS011;58775;46.992;9.518;2024-03-23T07:29:19;2.50;;;0.90;;
71116;SDS011;58775;46.992;9.518;2024-03-23T07:31:20;3.25;;;1.13;;
71116;SDS011;58775;46.992;9.518;2024-03-23T07:33:23;3.53;;;1.13;;
71116;SDS011;58775;46.992;9.518;2024-03-23T07:35:23;3.45;;;1.10;;
71116;SDS011;58775;46.992;9.518;2024-03-23T07:37:24;2.55;;;1.08;;
71116;SDS011;58775;46.992;9.518;2024-03-23T07:39:26;3.97;;;1.10;;
71116;SDS011;58775;46.992;9.518;2024-03-23T07:41:28;3.88;;;1.17;;
71116;SDS011;58775;46.992;9.518;2024-03-23T07:43:29;2.63;;;0.85;;
71116;SDS011;58775;46.992;9.518;2024-03-23T07:45:29;3.10;;;1.17;;
71116;SDS011;58775;46.992;9.518;2024-03-23T07:47:30;4.05;;;1.10;;
71116;SDS011;58775;46.992;9.518;2024-03-23T07:49:31;4.90;;;1.27;;
71116;SDS011;58775;46.992;9.518;2024-03-23T07:51:32;3.70;;;1.00;;
71116;SDS011;58775;46.992;9.518;2024-03-23T07:53:34;2.92;;;1.20;;
71116;SDS011;58775;46.992;9.518;2024-03-23T07:55:36;3.65;;;1.27;;
71116;SDS011;58775;46.992;9.518;2024-03-23T07:57:36;4.50;;;1.20;;
71116;SDS011;58775;46.992;9.518;2024-03-23T07:59:37;4.07;;;1.30;;
71116;SDS011;58775;46.992;9.518;2024-03-23T08:01:38;3.20;;;1.00;;
71116;SDS011;58775;46.992;9.518;2024-03-23T08:03:39;4.03;;;0.90;;
71116;SDS011;58775;46.992;9.518;2024-03-23T08:05:42;2.95;;;1.05;;
71116;SDS011;58775;46.992;9.518;2024-03-23T08:07:43;2.53;;;0.77;;
71116;SDS011;58775;46.992;9.518;2024-03-23T08:09:44;2.45;;;0.80;;
71116;SDS011;58775;46.992;9.518;2024-03-23T08:11:44;3.65;;;0.80;;
71116;SDS011;58775;46.992;9.518;2024-03-23T08:13:47;2.93;;;0.80;;
71116;SDS011;58775;46.992;9.518;2024-03-23T08:15:47;1.90;;;0.90;;
71116;SDS011;58775;46.992;9.518;2024-03-23T08:17:49;4.68;;;0.82;;
71116;SDS011;58775;46.992;9.518;2024-03-23T08:19:50;2.23;;;0.80;;
71116;SDS011;58775;46.992;9.518;2024-03-23T08:21:52;1.80;;;0.60;;
71116;SDS011;58775;46.992;9.518;2024-03-23T08:23:54;3.15;;;0.60;;
71116;SDS011;58775;46.992;9.518;2024-03-23T08:25:58;2.50;;;0.68;;
71116;SDS011;58775;46.992;9.518;2024-03-23T08:28:02;1.40;;;0.60;;
71116;SDS011;58775;46.992;9.518;2024-03-23T08:30:04;2.22;;;0.82;;
71116;SDS011;58775;46.992;9.518;2024-03-23T08:32:05;1.20;;;0.50;;
71116;SDS011;58775;46.992;9.518;2024-03-23T08:34:06;2.20;;;0.50;;
71116;SDS011;58775;46.992;9.518;2024-03-23T08:36:15;2.80;;;0.90;;
71116;SDS011;58775;46.992;9.518;2024-03-23T08:38:17;3.25;;;0.50;;
71116;SDS011;58775;46.992;9.518;2024-03-23T08:40:18;1.63;;;0.30;;
71116;SDS011;58775;46.992;9.518;2024-03-23T08:42:19;1.07;;;0.40;;
71116;SDS011;58775;46.992;9.518;2024-03-23T08:44:20;1.63;;;0.50;;
71116;SDS011;58775;46.992;9.518;2024-03-23T08:46:20;1.50;;;0.40;;
71116;SDS011;58775;46.992;9.518;2024-03-23T08:48:21;1.00;;;0.40;;
71116;SDS011;58775;46.992;9.518;2024-03-23T08:50:22;1.20;;;0.43;;
71116;SDS011;58775;46.992;9.518;2024-03-23T08:52:23;0.75;;;0.40;;
71116;SDS011;58775;46.992;9.518;2024-03-23T08:54:26;0.80;;;0.30;;
71116;SDS011;58775;46.992;9.518;2024-03-23T08:56:27;1.25;;;0.40;;
71116;SDS011;58775;46.992;9.518;2024-03-23T08:58:29;0.63;;;0.40;;
71116;SDS011;58775;46.992;9.518;2024-03-23T09:00:30;0.70;;;0.30;;
71116;SDS011;58775;46.992;9.518;2024-03-23T09:02:31;1.25;;;0.40;;
71116;SDS011;58775;46.992;9.518;2024-03-23T09:04:32;2.30;;;0.40;;
71116;SDS011;58775;46.992;9.518;2024-03-23T09:06:33;0.70;;;0.40;;
71116;SDS011;58775;46.992;9.518;2024-03-23T09:08:34;1.37;;;0.37;;
71116;SDS011;58775;46.992;9.518;2024-03-23T09:10:40;1.48;;;0.50;;
71116;SDS011;58775;46.992;9.518;2024-03-23T09:12:42;1.08;;;0.38;;
71116;SDS011;58775;46.992;9.518;2024-03-23T09:14:42;1.50;;;0.40;;
71116;SDS011;58775;46.992;9.518;2024-03-23T09:16:43;2.03;;;0.50;;
71116;SDS011;58775;46.992;9.518;2024-03-23T09:18:44;1.83;;;0.53;;
71116;SDS011;58775;46.992;9.518;2024-03-23T09:20:45;0.60;;;0.38;;
71116;SDS011;58775;46.992;9.518;2024-03-23T09:22:47;2.30;;;0.70;;
71116;SDS011;58775;46.992;9.518;2024-03-23T09:24:48;2.17;;;0.63;;
71116;SDS011;58775;46.992;9.518;2024-03-23T09:26:51;1.90;;;0.60;;
71116;SDS011;58775;46.992;9.518;2024-03-23T09:28:52;2.92;;;0.77;;
71116;SDS011;58775;46.992;9.518;2024-03-23T09:30:53;2.80;;;0.60;;
71116;SDS011;58775;46.992;9.518;2024-03-23T09:32:54;1.33;;;0.50;;
71116;SDS011;58775;46.992;9.518;2024-03-23T09:34:55;1.30;;;0.47;;
71116;SDS011;58775;46.992;9.518;2024-03-23T09:36:56;1.47;;;0.50;;
71116;SDS011;58775;46.992;9.518;2024-03-23T09:38:57;1.38;;;0.60;;
71116;SDS011;58775;46.992;9.518;2024-03-23T09:40:58;1.50;;;0.47;;
71116;SDS011;58775;46.992;9.518;2024-03-23T09:42:59;3.10;;;0.57;;
71116;SDS011;58775;46.992;9.518;2024-03-23T09:45:00;0.93;;;0.40;;
71116;SDS011;58775;46.992;9.518;2024-03-23T09:47:01;1.60;;;0.45;;
71116;SDS011;58775;46.992;9.518;2024-03-23T09:49:03;0.50;;;0.30;;
71116;SDS011;58775;46.992;9.518;2024-03-23T09:51:04;0.30;;;0.22;;
71116;SDS011;58775;46.992;9.518;2024-03-23T09:53:11;0.80;;;0.30;;
71116;SDS011;58775;46.992;9.518;2024-03-23T09:55:13;3.40;;;0.20;;
71116;SDS011;58775;46.992;9.518;2024-03-23T09:57:14;0.70;;;0.20;;
71116;SDS011;58775;46.992;9.518;2024-03-23T09:59:15;0.90;;;0.13;;
71116;SDS011;58775;46.992;9.518;2024-03-23T10:01:16;0.93;;;0.27;;
71116;SDS011;58775;46.992;9.518;2024-03-23T10:03:17;0.10;;;0.10;;
71116;SDS011;58775;46.992;9.518;2024-03-23T10:05:21;0.65;;;0.20;;
71116;SDS011;58775;46.992;9.518;2024-03-23T10:07:23;0.83;;;0.20;;
71116;SDS011;58775;46.992;9.518;2024-03-23T10:09:24;0.30;;;0.10;;
71116;SDS011;58775;46.992;9.518;2024-03-23T10:11:26;0.32;;;0.10;;
71116;SDS011;58775;46.992;9.518;2024-03-23T10:13:29;0.10;;;0.10;;
71116;SDS011;58775;46.992;9.518;2024-03-23T10:15:30;0.10;;;0.10;;
71116;SDS011;58775;46.992;9.518;2024-03-23T10:17:35;0.10;;;0.10;;
71116;SDS011;58775;46.992;9.518;2024-03-23T10:19:35;0.45;;;0.10;;
71116;SDS011;58775;46.992;9.518;2024-03-23T10:21:36;0.30;;;0.20;;
71116;SDS011;58775;46.992;9.518;2024-03-23T10:23:41;0.60;;;0.10;;
71116;SDS011;58775;46.992;9.518;2024-03-23T10:25:43;0.10;;;0.10;;
71116;SDS011;58775;46.992;9.518;2024-03-23T10:27:44;0.20;;;0.10;;
71116;SDS011;58775;46.992;9.518;2024-03-23T10:30:10;0.38;;;0.20;;
71116;SDS011;58775;46.992;9.518;2024-03-23T10:32:16;0.43;;;0.10;;
71116;SDS011;58775;46.992;9.518;2024-03-23T10:34:32;0.90;;;0.20;;
71116;SDS011;58775;46.992;9.518;2024-03-23T10:36:48;0.10;;;0.10;;
71116;SDS011;58775;46.992;9.518;2024-03-23T10:38:50;0.20;;;0.10;;
71116;SDS011;58775;46.992;9.518;2024-03-23T10:40:52;0.43;;;0.20;;
71116;SDS011;58775;46.992;9.518;2024-03-23T10:42:55;0.30;;;0.10;;
71116;SDS011;58775;46.992;9.518;2024-03-23T10:44:58;0.28;;;0.10;;
71116;SDS011;58775;46.992;9.518;2024-03-23T10:47:01;0.22;;;0.17;;
71116;SDS011;58775;46.992;9.518;2024-03-23T10:49:03;0.20;;;0.10;;
71116;SDS011;58775;46.992;9.518;2024-03-23T10:51:05;0.38;;;0.20;;
71116;SDS011;58775;46.992;9.518;2024-03-23T10:53:08;1.95;;;0.10;;
71116;SDS011;58775;46.992;9.518;2024-03-23T10:55:09;0.60;;;0.13;;
71116;SDS011;58775;46.992;9.518;2024-03-23T10:57:13;1.25;;;0.30;;
71116;SDS011;58775;46.992;9.518;2024-03-23T10:59:17;0.50;;;0.10;;
71116;SDS011;58775;46.992;9.518;2024-03-23T11:01:19;1.38;;;0.20;;
71116;SDS011;58775;46.992;9.518;2024-03-23T11:03:29;0.88;;;0.20;;
71116;SDS011;58775;46.992;9.518;2024-03-23T11:05:37;0.50;;;0.13;;
71116;SDS011;58775;46.992;9.518;2024-03-23T11:07:37;2.10;;;0.30;;
71116;SDS011;58775;46.992;9.518;2024-03-23T11:09:39;4.55;;;0.40;;
71116;SDS011;58775;46.992;9.518;2024-03-23T11:11:46;0.45;;;0.20;;
71116;SDS011;58775;46.992;9.518;2024-03-23T11:13:49;0.50;;;0.17;;
71116;SDS011;58775;46.992;9.518;2024-03-23T11:15:51;1.50;;;0.23;;
71116;SDS011;58775;46.992;9.518;2024-03-23T11:18:04;0.77;;;0.20;;
71116;SDS011;58775;46.992;9.518;2024-03-23T11:20:08;1.55;;;0.20;;
71116;SDS011;58775;46.992;9.518;2024-03-23T11:22:11;0.40;;;0.20;;
71116;SDS011;58775;46.992;9.518;2024-03-23T11:24:15;0.57;;;0.20;;
71116;SDS011;58775;46.992;9.518;2024-03-23T11:26:15;1.38;;;0.30;;
71116;SDS011;58775;46.992;9.518;2024-03-23T11:28:16;0.13;;;0.10;;
71116;SDS011;58775;46.992;9.518;2024-03-23T11:30:18;0.30;;;0.13;;
71116;SDS011;58775;46.992;9.518;2024-03-23T11:32:20;0.68;;;0.10;;
71116;SDS011;58775;46.992;9.518;2024-03-23T11:34:21;1.42;;;0.38;;
71116;SDS011;58775;46.992;9.518;2024-03-23T11:36:23;0.30;;;0.20;;
71116;SDS011;58775;46.992;9.518;2024-03-23T11:38:23;1.03;;;0.10;;
71116;SDS011;58775;46.992;9.518;2024-03-23T11:40:24;1.65;;;0.30;;
71116;SDS011;58775;46.992;9.518;2024-03-23T11:42:25;0.60;;;0.20;;
71116;SDS011;58775;46.992;9.518;2024-03-23T11:44:26;1.23;;;0.20;;
71116;SDS011;58775;46.992;9.518;2024-03-23T11:46:27;0.95;;;0.22;;
71116;SDS011;58775;46.992;9.518;2024-03-23T11:48:28;1.00;;;0.30;;
71116;SDS011;58775;46.992;9.518;2024-03-23T11:50:29;0.85;;;0.43;;
71116;SDS011;58775;46.992;9.518;2024-03-23T11:52:29;0.63;;;0.30;;
71116;SDS011;58775;46.992;9.518;2024-03-23T11:54:30;0.77;;;0.27;;
71116;SDS011;58775;46.992;9.518;2024-03-23T11:56:31;1.73;;;0.30;;
71116;SDS011;58775;46.992;9.518;2024-03-23T11:58:32;0.80;;;0.20;;
71116;SDS011;58775;46.992;9.518;2024-03-23T12:00:35;2.78;;;0.30;;
71116;SDS011;58775;46.992;9.518;2024-03-23T12:02:36;1.90;;;0.40;;
71116;SDS011;58775;46.992;9.518;2024-03-23T12:04:37;2.97;;;0.53;;
71116;SDS011;58775;46.992;9.518;2024-03-23T12:06:40;4.13;;;0.50;;
71116;SDS011;58775;46.992;9.518;2024-03-23T12:08:41;1.92;;;0.40;;
71116;SDS011;58775;46.992;9.518;2024-03-23T12:10:43;1.92;;;0.60;;
71116;SDS011;58775;46.992;9.518;2024-03-23T12:12:46;2.40;;;0.40;;
71116;SDS011;58775;46.992;9.518;2024-03-23T12:15:01;1.92;;;0.30;;
71116;SDS011;58775;46.992;9.518;2024-03-23T12:19:11;3.35;;;0.82;;
71116;SDS011;58775;46.992;9.518;2024-03-23T12:21:12;5.00;;;0.60;;
71116;SDS011;58775;46.992;9.518;2024-03-23T12:23:13;3.10;;;0.70;;
71116;SDS011;58775;46.992;9.518;2024-03-23T12:25:17;6.85;;;0.82;;
71116;SDS011;58775;46.992;9.518;2024-03-23T12:27:18;5.87;;;0.67;;
71116;SDS011;58775;46.992;9.518;2024-03-23T12:29:19;5.32;;;1.17;;
71116;SDS011;58775;46.992;9.518;2024-03-23T12:31:20;3.58;;;0.77;;
71116;SDS011;58775;46.992;9.518;2024-03-23T12:33:21;2.57;;;0.67;;
71116;SDS011;58775;46.992;9.518;2024-03-23T12:35:22;4.93;;;0.90;;
71116;SDS011;58775;46.992;9.518;2024-03-23T12:37:23;7.60;;;0.83;;
71116;SDS011;58775;46.992;9.518;2024-03-23T12:39:23;4.15;;;0.63;;
71116;SDS011;58775;46.992;9.518;2024-03-23T12:41:24;4.47;;;0.80;;
71116;SDS011;58775;46.992;9.518;2024-03-23T12:43:25;5.73;;;0.83;;
71116;SDS011;58775;46.992;9.518;2024-03-23T12:45:26;2.88;;;0.50;;
71116;SDS011;58775;46.992;9.518;2024-03-23T12:47:27;3.60;;;0.50;;
71116;SDS011;58775;46.992;9.518;2024-03-23T12:49:27;3.70;;;0.95;;
71116;SDS011;58775;46.992;9.518;2024-03-23T12:51:29;4.15;;;0.68;;
71116;SDS011;58775;46.992;9.518;2024-03-23T12:53:30;4.60;;;1.00;;
71116;SDS011;58775;46.992;9.518;2024-03-23T12:55:31;3.63;;;0.63;;
71116;SDS011;58775;46.992;9.518;2024-03-23T12:57:32;2.27;;;0.53;;
71116;SDS011;58775;46.992;9.518;2024-03-23T12:59:33;2.80;;;0.50;;
71116;SDS011;58775;46.992;9.518;2024-03-23T13:01:35;6.10;;;0.70;;
71116;SDS011;58775;46.992;9.518;2024-03-23T13:03:36;6.85;;;0.60;;
71116;SDS011;58775;46.992;9.518;2024-03-23T13:05:37;2.83;;;0.82;;
71116;SDS011;58775;46.992;9.518;2024-03-23T13:07:38;3.60;;;0.50;;
71116;SDS011;58775;46.992;9.518;2024-03-23T13:09:38;5.33;;;0.70;;